createdAt,value
2023-04-05T00:02:18.730Z,4.24
2023-04-05T00:04:50.753Z,4.28
2023-04-05T00:07:18.961Z,4.19
2023-04-05T00:09:45.442Z,4.51
2023-04-05T00:12:14.022Z,4.55
2023-04-05T00:14:42.810Z,4.59
2023-04-05T00:17:11.178Z,4.41
2023-04-05T00:19:39.254Z,4.36
2023-04-05T00:22:05.699Z,4.34
2023-04-05T00:24:33.671Z,4.30
2023-04-05T00:27:01.179Z,4.30
2023-04-05T00:29:27.776Z,4.31
2023-04-05T00:31:56.679Z,4.09
2023-04-05T00:34:23.503Z,4.17
2023-04-05T00:36:49.994Z,4.23
2023-04-05T00:39:18.966Z,4.16
2023-04-05T00:41:46.962Z,4.08
2023-04-05T00:44:15.215Z,4.13
2023-04-05T00:46:42.243Z,4.23
2023-04-05T00:49:09.402Z,4.33
2023-04-05T00:51:38.288Z,3.90
2023-04-05T00:54:06.265Z,3.60
2023-04-05T00:56:33.069Z,3.41
2023-04-05T00:58:59.518Z,3.50
2023-04-05T01:01:27.820Z,3.66
2023-04-05T01:04:00.024Z,3.45
2023-04-05T01:06:59.775Z,3.33
2023-04-05T01:09:30.314Z,3.47
2023-04-05T01:12:01.168Z,3.45
2023-04-05T01:14:27.500Z,3.49
2023-04-05T01:16:58.461Z,3.20
2023-04-05T01:19:29.592Z,3.39
2023-04-05T01:22:16.094Z,3.35
2023-04-05T01:25:02.869Z,3.42
2023-04-05T01:27:47.943Z,3.24
2023-04-05T01:30:39.133Z,3.14
2023-04-05T01:33:19.221Z,2.77
2023-04-05T01:35:55.470Z,2.77
2023-04-05T01:38:25.310Z,2.77
2023-04-05T01:40:56.365Z,3.15
2023-04-05T01:43:22.839Z,3.25
2023-04-05T01:45:49.321Z,3.30
2023-04-05T01:48:16.113Z,3.25
2023-04-05T01:50:42.728Z,3.34
2023-04-05T01:53:09.812Z,3.24
2023-04-05T01:55:36.182Z,3.46
2023-04-05T01:58:02.774Z,2.83
2023-04-05T02:00:29.253Z,2.60
2023-04-05T02:02:55.933Z,2.56
2023-04-05T02:05:22.337Z,2.62
2023-04-05T02:07:51.388Z,2.60
2023-04-05T02:10:18.624Z,2.69
2023-04-05T02:12:45.064Z,2.65
2023-04-05T02:15:12.352Z,2.74
2023-04-05T02:17:45.610Z,2.53
2023-04-05T02:20:15.752Z,2.54
2023-04-05T02:22:45.612Z,2.62
2023-04-05T02:25:13.075Z,2.66
2023-04-05T02:27:41.353Z,2.51
2023-04-05T02:30:08.836Z,2.32
2023-04-05T02:32:35.424Z,2.17
2023-04-05T02:35:02.726Z,2.37
2023-04-05T02:37:29.151Z,2.52
2023-04-05T02:39:55.622Z,2.41
2023-04-05T02:42:22.299Z,2.38
2023-04-05T02:44:48.892Z,2.36
2023-04-05T02:47:21.500Z,2.27
2023-04-05T02:49:48.810Z,2.36
2023-04-05T02:52:15.968Z,1.85
2023-04-05T02:54:43.744Z,2.02
2023-04-05T02:57:11.601Z,1.86
2023-04-05T02:59:39.061Z,1.69
2023-04-05T03:02:06.401Z,1.63
2023-04-05T03:04:34.588Z,1.62
2023-04-05T03:07:02.923Z,1.58
2023-04-05T03:09:33.515Z,0.88
2023-04-05T03:12:03.771Z,0.85
2023-04-05T03:14:30.668Z,1.31
2023-04-05T03:16:59.657Z,1.16
2023-04-05T03:19:27.134Z,1.39
2023-04-05T03:21:53.825Z,1.19
2023-04-05T03:24:22.539Z,1.36
2023-04-05T03:26:49.480Z,1.35
2023-04-05T03:29:17.163Z,1.39
2023-04-05T03:31:44.750Z,1.47
2023-04-05T03:34:11.420Z,1.50
2023-04-05T03:36:43.773Z,1.49
2023-04-05T03:39:14.082Z,1.59
2023-04-05T03:41:41.162Z,1.14
2023-04-05T03:44:09.048Z,1.16
2023-04-05T03:46:38.236Z,1.34
2023-04-05T03:49:06.063Z,1.37
2023-04-05T03:51:32.644Z,1.32
2023-04-05T03:53:59.215Z,1.40
2023-04-05T03:56:25.716Z,1.39
2023-04-05T03:58:53.231Z,1.10
2023-04-05T04:01:19.781Z,0.46
2023-04-05T04:03:46.171Z,0.22
2023-04-05T04:06:17.789Z,0.03
2023-04-05T04:08:48.205Z,0.08
2023-04-05T04:11:14.684Z,0.05
2023-04-05T04:13:41.158Z,0.01
2023-04-05T04:16:07.791Z,-0.13
2023-04-05T04:18:36.665Z,-0.06
2023-04-05T04:21:07.050Z,-0.06
2023-04-05T04:23:40.134Z,-0.08
2023-04-05T04:26:06.542Z,-0.09
2023-04-05T04:28:34.768Z,-0.08
2023-04-05T04:31:05.026Z,-0.13
2023-04-05T04:33:31.558Z,-0.09
2023-04-05T04:35:58.070Z,-0.20
2023-04-05T04:38:27.074Z,-0.33
2023-04-05T04:40:58.155Z,-0.39
2023-04-05T04:43:26.730Z,-0.19
2023-04-05T04:46:01.586Z,-0.09
2023-04-05T04:48:27.958Z,-0.26
2023-04-05T04:50:54.675Z,-0.32
2023-04-05T04:53:24.188Z,-0.25
2023-04-05T04:55:55.109Z,-0.27
2023-04-05T04:58:21.428Z,-0.40
2023-04-05T05:00:48.361Z,-0.45
2023-04-05T05:03:14.882Z,-0.47
2023-04-05T05:05:45.616Z,-0.36
2023-04-05T05:08:12.825Z,-0.42
2023-04-05T05:10:39.594Z,-0.38
2023-04-05T05:13:06.548Z,-0.33
2023-04-05T05:15:32.939Z,-0.31
2023-04-05T05:17:59.556Z,-0.32
2023-04-05T05:20:28.778Z,-0.30
2023-04-05T05:22:55.998Z,-0.27
2023-04-05T05:25:22.780Z,-0.35
2023-04-05T05:27:50.980Z,-0.19
2023-04-05T05:30:18.784Z,-0.28
2023-04-05T05:32:47.409Z,-0.43
2023-04-05T05:35:14.001Z,-0.42
2023-04-05T05:37:40.811Z,-0.46
2023-04-05T05:40:07.802Z,-0.38
2023-04-05T05:42:34.218Z,-0.35
2023-04-05T05:45:06.817Z,-0.32
2023-04-05T05:47:35.586Z,-0.34
2023-04-05T05:50:02.015Z,-0.41
2023-04-05T05:52:28.471Z,-0.23
2023-04-05T05:54:54.894Z,-0.17
2023-04-05T05:57:21.343Z,-0.04
2023-04-05T05:59:47.760Z,0.08
2023-04-05T06:02:14.576Z,0.60
2023-04-05T06:04:41.856Z,0.82
2023-04-05T06:07:08.414Z,1.10
2023-04-05T06:09:37.437Z,0.98
2023-04-05T06:12:03.998Z,1.09
2023-04-05T06:14:30.497Z,1.26
2023-04-05T06:16:57.397Z,1.39
2023-04-05T06:19:23.946Z,1.25
2023-04-05T06:21:50.592Z,1.44
2023-04-05T06:24:17.083Z,1.76
2023-04-05T06:26:43.416Z,1.98
2023-04-05T06:29:09.838Z,2.32
2023-04-05T06:31:36.578Z,2.42
2023-04-05T06:34:03.491Z,3.25
2023-04-05T06:36:31.950Z,3.66
2023-04-05T06:39:01.048Z,4.02
2023-04-05T06:41:35.013Z,3.94
2023-04-05T06:44:01.514Z,3.44
2023-04-05T06:46:32.943Z,3.97
2023-04-05T06:49:02.249Z,4.16
2023-04-05T06:51:30.929Z,4.60
2023-04-05T06:53:57.331Z,4.56
2023-04-05T06:56:23.716Z,5.37
2023-04-05T06:58:53.047Z,4.55
2023-04-05T07:01:19.500Z,5.36
2023-04-05T07:03:46.199Z,4.85
2023-04-05T07:06:12.664Z,6.20
2023-04-05T07:08:39.283Z,6.46
2023-04-05T07:11:05.815Z,6.79
2023-04-05T07:13:32.489Z,6.21
2023-04-05T07:16:03.338Z,6.29
2023-04-05T07:18:32.517Z,6.46
2023-04-05T07:21:03.838Z,7.14
2023-04-05T07:23:30.851Z,7.82
2023-04-05T07:26:04.984Z,7.81
2023-04-05T07:28:35.621Z,8.31
2023-04-05T07:31:09.152Z,7.26
2023-04-05T07:33:35.692Z,6.99
2023-04-05T07:36:03.431Z,6.31
2023-04-05T07:38:30.929Z,7.28
2023-04-05T07:40:59.682Z,7.70
2023-04-05T07:43:28.669Z,6.86
2023-04-05T07:46:02.391Z,6.89
2023-04-05T07:48:29.255Z,7.20
2023-04-05T07:50:55.649Z,7.95
2023-04-05T07:53:27.087Z,8.24
2023-04-05T07:55:53.584Z,8.04
2023-04-05T07:58:19.915Z,8.13
2023-04-05T08:00:46.372Z,7.54
2023-04-05T08:03:12.848Z,8.17
2023-04-05T08:05:39.358Z,7.86
2023-04-05T08:08:08.907Z,7.27
2023-04-05T08:10:39.947Z,8.27
2023-04-05T08:13:08.112Z,7.92
2023-04-05T08:15:37.119Z,8.42
2023-04-05T08:18:03.897Z,8.93
2023-04-05T08:20:30.478Z,8.34
2023-04-05T08:22:56.918Z,8.70
2023-04-05T08:25:23.306Z,8.68
2023-04-05T08:27:52.468Z,8.55
2023-04-05T08:30:19.941Z,8.38
2023-04-05T08:32:48.966Z,8.09
2023-04-05T08:35:16.103Z,7.13
2023-04-05T08:37:42.513Z,7.84
2023-04-05T08:40:12.184Z,8.26
2023-04-05T08:42:57.410Z,8.18
2023-04-05T08:45:25.846Z,8.31
2023-04-05T08:47:56.044Z,7.83
2023-04-05T08:50:24.458Z,8.06
2023-04-05T08:52:50.985Z,7.70
2023-04-05T08:55:17.400Z,8.06
2023-04-05T08:57:49.827Z,8.17
2023-04-05T09:00:17.956Z,8.35
2023-04-05T09:02:48.924Z,7.96
2023-04-05T09:05:19.086Z,8.52
2023-04-05T09:07:47.904Z,9.01
2023-04-05T09:10:14.691Z,8.51
2023-04-05T09:12:41.288Z,8.58
2023-04-05T09:15:08.391Z,8.69
2023-04-05T09:17:37.243Z,9.31
2023-04-05T09:20:03.873Z,9.43
2023-04-05T09:22:30.353Z,9.34
2023-04-05T09:24:56.728Z,9.22
2023-04-05T09:27:23.363Z,9.76
2023-04-05T09:29:50.494Z,10.21
2023-04-05T09:32:21.151Z,10.21
2023-04-05T09:34:48.191Z,8.99
2023-04-05T09:37:22.173Z,8.92
2023-04-05T09:39:51.510Z,9.65
2023-04-05T09:42:19.732Z,9.54
2023-04-05T09:44:57.955Z,9.87
2023-04-05T09:47:34.650Z,10.32
2023-04-05T09:50:18.353Z,10.81
2023-04-05T09:52:45.521Z,10.80
2023-04-05T09:55:15.270Z,10.75
2023-04-05T09:57:43.866Z,10.89
2023-04-05T10:00:22.205Z,10.92
2023-04-05T10:02:53.438Z,10.87
2023-04-05T10:05:24.263Z,11.40
2023-04-05T10:07:52.322Z,10.64
2023-04-05T10:10:19.269Z,11.31
2023-04-05T10:12:47.952Z,11.29
2023-04-05T10:15:15.870Z,10.29
2023-04-05T10:18:18.857Z,10.20
2023-04-05T10:20:50.293Z,10.55
2023-04-05T10:23:24.495Z,10.94
2023-04-05T10:25:57.068Z,10.91
2023-04-05T10:28:26.171Z,11.19
2023-04-05T10:31:12.885Z,10.94
2023-04-05T10:33:47.563Z,10.89
2023-04-05T10:36:27.011Z,11.15
2023-04-05T10:39:17.969Z,10.23
2023-04-05T10:41:49.516Z,10.05
2023-04-05T10:44:25.859Z,10.11
2023-04-05T10:46:57.979Z,10.76
2023-04-05T10:49:56.256Z,10.22
2023-04-05T10:52:23.066Z,10.59
2023-04-05T10:54:52.595Z,10.52
2023-04-05T10:57:20.842Z,10.51
2023-04-05T10:59:48.989Z,10.32
2023-04-05T11:02:16.736Z,10.33
2023-04-05T11:04:43.258Z,10.84
2023-04-05T11:07:20.115Z,10.45
2023-04-05T11:09:55.389Z,10.50
2023-04-05T11:12:53.710Z,10.38
2023-04-05T11:15:27.549Z,10.81
2023-04-05T11:18:04.810Z,11.24
2023-04-05T11:20:40.820Z,11.08
2023-04-05T11:23:07.967Z,10.75
2023-04-05T11:25:39.927Z,10.29
2023-04-05T11:28:09.307Z,11.12
2023-04-05T11:30:49.424Z,10.75
2023-04-05T11:33:39.762Z,10.73
2023-04-05T11:36:06.810Z,11.33
2023-04-05T11:38:33.644Z,11.06
2023-04-05T11:41:17.432Z,11.76
2023-04-05T11:43:47.608Z,11.52
2023-04-05T11:46:18.361Z,11.27
2023-04-05T11:48:51.052Z,11.59
2023-04-05T11:51:23.445Z,10.76
2023-04-05T11:53:50.240Z,10.75
2023-04-05T11:56:16.675Z,11.23
2023-04-05T11:58:43.102Z,11.30
2023-04-05T12:01:09.661Z,11.49
2023-04-05T12:03:37.467Z,11.30
2023-04-05T12:06:06.441Z,11.81
2023-04-05T12:08:43.398Z,11.20
2023-04-05T12:11:11.635Z,11.22
2023-04-05T12:13:38.952Z,11.24
2023-04-05T12:16:06.913Z,11.82
2023-04-05T12:18:35.570Z,12.10
2023-04-05T12:21:06.973Z,11.92
2023-04-05T12:23:34.387Z,11.85
2023-04-05T12:26:01.520Z,11.91
2023-04-05T12:28:58.305Z,11.80
2023-04-05T12:31:43.834Z,11.83
2023-04-05T12:34:12.193Z,11.65
2023-04-05T12:36:48.616Z,11.55
2023-04-05T12:39:17.209Z,11.95
2023-04-05T12:41:43.683Z,11.72
2023-04-05T12:44:16.608Z,12.02
2023-04-05T12:46:45.300Z,11.83
2023-04-05T12:49:20.935Z,11.55
2023-04-05T12:51:48.411Z,11.43
2023-04-05T12:54:23.206Z,11.43
2023-04-05T12:56:54.400Z,11.28
2023-04-05T12:59:21.542Z,11.75
2023-04-05T13:01:48.281Z,11.48
2023-04-05T13:04:16.865Z,11.79
2023-04-05T13:06:46.574Z,12.07
2023-04-05T13:09:13.200Z,11.78
2023-04-05T13:11:42.019Z,11.67
2023-04-05T13:14:08.859Z,11.85
2023-04-05T13:16:37.808Z,12.49
2023-04-05T13:19:04.283Z,12.26
2023-04-05T13:21:30.964Z,12.22
2023-04-05T13:23:57.507Z,11.68
2023-04-05T13:26:23.955Z,11.43
2023-04-05T13:28:50.470Z,12.19
2023-04-05T13:31:21.973Z,12.25
2023-04-05T13:33:48.380Z,11.70
2023-04-05T13:36:14.856Z,11.63
2023-04-05T13:38:41.309Z,12.12
2023-04-05T13:41:08.002Z,12.19
2023-04-05T13:43:34.514Z,12.41
2023-04-05T13:46:00.946Z,12.42
2023-04-05T13:48:29.546Z,12.07
2023-04-05T13:50:56.052Z,12.29
2023-04-05T13:53:22.648Z,11.88
2023-04-05T13:55:49.075Z,11.95
2023-04-05T13:58:16.329Z,11.81
2023-04-05T14:00:43.209Z,11.45
2023-04-05T14:03:09.992Z,11.34
2023-04-05T14:05:36.624Z,11.64
2023-04-05T14:08:03.193Z,11.49
2023-04-05T14:10:31.574Z,11.38
2023-04-05T14:12:58.140Z,11.57
2023-04-05T14:15:24.791Z,11.41
2023-04-05T14:17:51.292Z,11.75
2023-04-05T14:20:17.744Z,11.73
2023-04-05T14:22:44.334Z,11.38
2023-04-05T14:25:10.720Z,11.28
2023-04-05T14:27:42.424Z,11.44
2023-04-05T14:30:10.325Z,11.14
2023-04-05T14:32:36.751Z,11.54
2023-04-05T14:35:03.180Z,11.52
2023-04-05T14:37:29.878Z,11.23
2023-04-05T14:39:56.392Z,11.11
2023-04-05T14:42:23.822Z,10.96
2023-04-05T14:44:52.253Z,10.95
2023-04-05T14:47:18.805Z,10.87
2023-04-05T14:49:45.195Z,10.93
2023-04-05T14:52:14.354Z,11.20
2023-04-05T14:54:41.204Z,11.04
2023-04-05T14:57:07.567Z,11.08
2023-04-05T14:59:36.385Z,10.91
2023-04-05T15:02:03.729Z,10.77
2023-04-05T15:04:30.212Z,11.10
2023-04-05T15:06:56.877Z,10.74
2023-04-05T15:09:25.706Z,10.84
2023-04-05T15:11:57.216Z,10.88
2023-04-05T15:14:32.238Z,10.75
2023-04-05T15:16:59.222Z,10.69
2023-04-05T15:19:25.845Z,10.82
2023-04-05T15:21:52.374Z,11.03
2023-04-05T15:24:21.515Z,11.07
2023-04-05T15:26:50.580Z,10.96
2023-04-05T15:29:19.753Z,10.89
2023-04-05T15:31:46.212Z,10.88
2023-04-05T15:34:12.714Z,10.70
2023-04-05T15:36:39.425Z,10.44
2023-04-05T15:39:08.640Z,10.63
2023-04-05T15:41:35.407Z,10.56
2023-04-05T15:44:04.720Z,10.47
2023-04-05T15:46:31.266Z,10.14
2023-04-05T15:48:57.637Z,10.20
2023-04-05T15:51:26.674Z,9.90
2023-04-05T15:53:53.066Z,9.92
2023-04-05T15:56:21.960Z,10.04
2023-04-05T15:58:48.583Z,9.97
2023-04-05T16:01:14.987Z,10.02
2023-04-05T16:03:41.912Z,9.98
2023-04-05T16:06:08.525Z,9.89
2023-04-05T16:08:35.070Z,9.90
2023-04-05T16:11:04.062Z,9.88
2023-04-05T16:13:30.724Z,10.21
2023-04-05T16:15:57.299Z,10.25
2023-04-05T16:18:24.285Z,10.21
2023-04-05T16:20:52.956Z,10.27
2023-04-05T16:23:19.396Z,10.18
2023-04-05T16:25:45.750Z,10.28
2023-04-05T16:28:12.129Z,10.03
2023-04-05T16:30:38.713Z,10.14
2023-04-05T16:33:05.310Z,10.23
2023-04-05T16:35:31.810Z,10.30
2023-04-05T16:38:00.563Z,10.26
2023-04-05T16:40:26.993Z,9.81
2023-04-05T16:42:54.295Z,10.11
2023-04-05T16:45:20.750Z,9.94
2023-04-05T16:47:49.738Z,9.71
2023-04-05T16:50:21.195Z,9.74
2023-04-05T16:52:47.539Z,9.80
2023-04-05T16:55:14.054Z,9.93
2023-04-05T16:57:43.088Z,9.72
2023-04-05T17:00:09.970Z,9.81
2023-04-05T17:02:38.865Z,9.84
2023-04-05T17:05:06.320Z,9.72
2023-04-05T17:07:35.348Z,9.56
2023-04-05T17:10:04.581Z,9.69
2023-04-05T17:12:33.729Z,9.72
2023-04-05T17:15:00.205Z,9.73
2023-04-05T17:17:34.113Z,9.86
2023-04-05T17:20:03.471Z,9.75
2023-04-05T17:22:31.513Z,9.78
2023-04-05T17:24:57.988Z,9.34
2023-04-05T17:27:27.537Z,9.24
2023-04-05T17:29:53.856Z,9.04
2023-04-05T17:32:20.454Z,9.21
2023-04-05T17:34:46.883Z,9.05
2023-04-05T17:37:13.241Z,8.97
2023-04-05T17:39:39.704Z,9.07
2023-04-05T17:42:06.167Z,9.07
2023-04-05T17:44:32.892Z,8.83
2023-04-05T17:47:08.420Z,8.33
2023-04-05T17:49:37.646Z,8.28
2023-04-05T17:52:08.009Z,8.25
2023-04-05T17:54:37.061Z,8.27
2023-04-05T17:57:07.148Z,8.10
2023-04-05T17:59:35.234Z,8.07
2023-04-05T18:02:01.796Z,7.95
2023-04-05T18:04:28.230Z,7.82
2023-04-05T18:06:57.257Z,7.74
2023-04-05T18:09:23.931Z,7.60
2023-04-05T18:11:50.491Z,7.58
2023-04-05T18:14:16.812Z,7.27
2023-04-05T18:16:43.355Z,7.41
2023-04-05T18:19:09.989Z,7.44
2023-04-05T18:21:36.426Z,7.36
2023-04-05T18:24:06.255Z,7.28
2023-04-05T18:26:33.900Z,7.28
2023-04-05T18:29:00.282Z,6.83
2023-04-05T18:31:28.360Z,6.75
2023-04-05T18:33:54.961Z,6.73
2023-04-05T18:36:21.359Z,6.92
2023-04-05T18:38:47.674Z,6.94
2023-04-05T18:41:15.205Z,7.02
2023-04-05T18:43:41.574Z,6.83
2023-04-05T18:46:08.124Z,6.74
2023-04-05T18:48:38.936Z,6.63
2023-04-05T18:51:07.686Z,6.56
2023-04-05T18:53:34.408Z,6.48
2023-04-05T18:56:00.944Z,5.41
2023-04-05T18:58:27.306Z,5.23
2023-04-05T19:00:53.727Z,5.11
2023-04-05T19:03:20.521Z,5.24
2023-04-05T19:05:52.621Z,5.36
2023-04-05T19:08:19.781Z,5.43
2023-04-05T19:10:46.405Z,5.49
2023-04-05T19:13:15.565Z,5.26
2023-04-05T19:15:47.629Z,5.25
2023-04-05T19:18:14.263Z,5.05
2023-04-05T19:20:40.628Z,4.96
2023-04-05T19:23:07.144Z,5.09
2023-04-05T19:25:33.714Z,4.98
2023-04-05T19:28:00.105Z,5.16
2023-04-05T19:30:27.332Z,5.11
2023-04-05T19:32:56.994Z,4.78
2023-04-05T19:35:26.014Z,4.72
2023-04-05T19:37:52.456Z,4.74
2023-04-05T19:40:19.958Z,4.50
2023-04-05T19:42:47.513Z,4.43
2023-04-05T19:45:21.123Z,4.37
2023-04-05T19:47:48.590Z,4.31
2023-04-05T19:50:41.965Z,4.33
2023-04-05T19:53:09.050Z,4.30
2023-04-05T19:55:38.368Z,4.18
2023-04-05T19:58:09.717Z,4.21
2023-04-05T20:00:46.956Z,4.19
2023-04-05T20:03:30.176Z,4.36
2023-04-05T20:06:07.298Z,4.27
2023-04-05T20:08:39.061Z,3.82
2023-04-05T20:11:10.848Z,4.09
2023-04-05T20:13:51.825Z,4.01
2023-04-05T20:16:25.671Z,3.99
2023-04-05T20:18:54.430Z,4.08
2023-04-05T20:21:21.121Z,3.57
2023-04-05T20:23:47.668Z,3.60
2023-04-05T20:26:17.041Z,3.83
2023-04-05T20:28:53.224Z,3.65
2023-04-05T20:31:25.486Z,3.58
2023-04-05T20:34:01.214Z,3.50
2023-04-05T20:36:33.184Z,3.64
2023-04-05T20:39:01.407Z,3.81
2023-04-05T20:41:28.515Z,3.82
2023-04-05T20:43:56.513Z,3.75
2023-04-05T20:46:23.244Z,3.72
2023-04-05T20:48:53.783Z,3.79
2023-04-05T20:51:20.277Z,3.87
2023-04-05T20:53:47.013Z,3.88
2023-04-05T20:56:16.740Z,3.68
2023-04-05T20:58:43.201Z,3.94
2023-04-05T21:01:10.313Z,3.94
2023-04-05T21:03:39.566Z,4.00
2023-04-05T21:06:11.784Z,3.53
2023-04-05T21:08:39.808Z,3.33
2023-04-05T21:11:11.602Z,3.48
2023-04-05T21:13:39.071Z,3.80
2023-04-05T21:16:06.139Z,3.78
2023-04-05T21:18:33.239Z,3.60
2023-04-05T21:21:00.484Z,3.61
2023-04-05T21:23:28.295Z,3.56
2023-04-05T21:25:58.483Z,3.68
2023-04-05T21:28:26.318Z,3.35
2023-04-05T21:30:53.273Z,3.38
2023-04-05T21:33:20.219Z,3.28
2023-04-05T21:35:46.830Z,3.38
2023-04-05T21:38:15.567Z,2.92
2023-04-05T21:40:44.534Z,2.96
2023-04-05T21:43:13.730Z,2.78
2023-04-05T21:45:42.387Z,2.91
2023-04-05T21:48:08.792Z,2.63
2023-04-05T21:50:35.656Z,2.68
2023-04-05T21:53:07.445Z,2.80
2023-04-05T21:55:33.824Z,2.80
2023-04-05T21:58:05.085Z,2.29
2023-04-05T22:00:31.577Z,2.10
2023-04-05T22:02:58.065Z,2.14
2023-04-05T22:05:36.291Z,2.25
2023-04-05T22:08:07.324Z,2.23
2023-04-05T22:10:34.890Z,2.25
2023-04-05T22:13:03.981Z,2.10
2023-04-05T22:15:30.573Z,2.01
2023-04-05T22:17:57.109Z,2.10
2023-04-05T22:20:23.476Z,2.03
2023-04-05T22:22:54.766Z,2.00
2023-04-05T22:25:21.819Z,2.01
2023-04-05T22:27:48.331Z,2.16
2023-04-05T22:30:14.809Z,2.06
2023-04-05T22:32:41.442Z,2.06
2023-04-05T22:35:08.178Z,1.91
2023-04-05T22:37:40.716Z,1.96
2023-04-05T22:40:07.423Z,2.05
2023-04-05T22:42:33.826Z,2.29
2023-04-05T22:45:02.926Z,2.42
2023-04-05T22:47:29.649Z,2.45
2023-04-05T22:49:56.014Z,2.09
2023-04-05T22:52:27.315Z,2.08
2023-04-05T22:54:53.761Z,1.96
2023-04-05T22:57:20.521Z,1.90
2023-04-05T22:59:46.957Z,1.96
2023-04-05T23:02:13.386Z,1.87
2023-04-05T23:04:39.947Z,1.91
2023-04-05T23:07:06.480Z,1.90
2023-04-05T23:09:33.053Z,1.84
2023-04-05T23:12:04.346Z,1.86
2023-04-05T23:14:38.080Z,1.84
2023-04-05T23:17:05.417Z,1.70
2023-04-05T23:19:32.142Z,1.75
2023-04-05T23:21:58.930Z,1.82
2023-04-05T23:24:25.300Z,1.81
2023-04-05T23:26:52.103Z,1.70
2023-04-05T23:29:18.780Z,1.83
2023-04-05T23:31:45.911Z,1.78
2023-04-05T23:34:14.946Z,1.76
2023-04-05T23:36:46.459Z,1.70
2023-04-05T23:39:13.699Z,1.77
2023-04-05T23:42:01.316Z,1.79
2023-04-05T23:44:27.666Z,1.75
2023-04-05T23:46:56.468Z,1.79
2023-04-05T23:49:28.055Z,1.78
2023-04-05T23:51:55.278Z,1.75
2023-04-05T23:54:21.899Z,1.78
2023-04-05T23:56:49.108Z,1.55
2023-04-05T23:59:15.950Z,1.35
